Detalii statie BEREGSANA BEREGSAU [00001991]

Toti senzorii

Date Temperatura solului [C]Precipitatii [mm]Voltaj baterie [mV]Leaf Wetness [Min]HC Air temperature [C]HC Relative humidity [%]Punctul de roua [C]
medieminmaxsumaultimatimpmedieminmaxmediemediemin
2018-02-23 13:00:00 3.2 3.2 3.4 0 7324
2018-02-23 14:00:00 3.3 3.2 3.5 0 7332
2018-02-23 15:00:00 3.4 3.3 3.6 0 7324
2018-02-23 16:00:00 3.5 3.5 3.7 0 7304
2018-02-23 17:00:00 3.6 3.6 3.9 0 7098
2018-02-23 18:00:00 3.7 3.7 4 0 7050
2018-02-23 19:00:00 3.9 3.8 4 0 7010
2018-02-23 20:00:00 3.8 3.8 4 0 7000
2018-02-23 21:00:00 3.9 3.8 4.1 0 7010
2018-02-23 22:00:00 4 3.8 4.1 0 6982
2018-02-23 23:00:00 3.9 3.7 4.1 0 7000
2018-02-24 00:00:00 3.9 3.8 4.1 0 6992
2018-02-24 01:00:00 3.9 3.7 4 0 6972
2018-02-24 02:00:00 3.8 3.8 4 0 6972
2018-02-24 03:00:00 3.8 3.7 3.9 0 6972
2018-02-24 04:00:00 3.7 3.5 3.8 0 6992
2018-02-24 05:00:00 3.5 3.5 3.7 0 6972
2018-02-24 06:00:00 3.4 3.4 3.6 0 6962
2018-02-24 07:00:00 3.3 3.3 3.5 0 6942
2018-02-24 08:00:00 3.1 3 3.2 0 6962
2018-02-24 09:00:00 3 2.8 3.2 0 6942
2018-02-24 10:00:00 2.8 2.7 3 0 7030
2018-02-24 11:00:00 2.6 2.6 2.8 0 7128
2018-02-24 12:00:00 2.5 2.4 2.7 0 7314
2018-02-24 13:00:00 2.4 2.3 2.6 0 7314
2018-02-24 14:00:00 2.3 2.2 2.5 0 7324
2018-02-24 15:00:00 2.2 2.1 2.3 0 7324
2018-02-24 16:00:00 2.1 2.1 2.2 0 7314
2018-02-24 17:00:00 2.1 2 2.2 0 7324
2018-02-24 18:00:00 2.1 2 2.2 0 7304
2018-02-24 19:00:00 2.1 2 2.2 0 7070
2018-02-24 20:00:00 2 1.9 2.1 0 7010
2018-02-24 21:00:00 1.9 1.9 2.1 0 7030
2018-02-24 22:00:00 1.9 1.9 2 0 6972
2018-02-24 23:00:00 1.8 1.7 2 0 7000
2018-02-25 00:00:00 1.7 1.7 1.9 0 6982
2018-02-25 01:00:00 1.7 1.6 1.8 0 6962
2018-02-25 02:00:00 1.7 1.5 1.8 0 6972
2018-02-25 03:00:00 1.6 1.5 1.7 0 6972
2018-02-25 04:00:00 1.6 1.5 1.7 0 6982
2018-02-25 05:00:00 1.5 1.4 1.6 0 6962
2018-02-25 06:00:00 1.4 1.4 1.6 0 6962
2018-02-25 07:00:00 1.4 1.4 1.5 0 6914
2018-02-25 08:00:00 1.4 1.3 1.5 0 6952
2018-02-25 09:00:00 1.3 1.3 1.4 0 7000
2018-02-25 10:00:00 1.3 1.2 1.5 0 7246
2018-02-25 11:00:00 1.2 1.2 1.4 0 7314
2018-02-25 12:00:00 1.2 1.2 1.3 0 7314